Archival Weather

Tokyo Intl

Tokyo, Japan (RJTT)

Report from: Friday, September 22, 2023 5:00 PM JST
Current time: Saturday, March 2, 2024 7:33 PM JST

Current weather – Weather history – Daily summaries
Weather forecast

Present weatherLight rain showers
Temperature26.0°C (78.8°F)
Dew point23.0°C (73.4°F)
Winds 16 kts (8.2 m/s, 18.4 mph) East (80°)
Visibility6.2 mi. (10 km)
Clouds Few clouds 2,000 ft. (610 m)
Ceiling: Broken clouds 3,000 ft. (914 m)
Altimeter29.85 in.Hg (1011 mB)
Relative humidity84 %
Density altitude1,724 ft. (525 m)
Remarks No significant changes expected in the next two hours
Flight conditions Visual Meteorological Conditions
Raw dataRJTT 220800Z 08016KT 9999 -SHRA FEW020 BKN030 26/23 Q1011 NOSIG
An error has occurred. This application may no longer respond until reloaded. Reload 🗙